Time,TemperatureF,DewpointF,PressureIn,WindDirection,WindDirectionDegrees,WindSpeedMPH,WindSpeedGustMPH,Humidity,HourlyPrecipIn,Conditions,Clouds,dailyrainin,SoftwareType,DateUTC
2013-03-16 00:00:00,52.7,34.6,29.59,NW,315,0.0,0.0,50,0.00,,---,0.00,VWS V13.01,2013-03-16 04:00:00,
2013-03-16 00:05:00,52.3,34.3,29.59,NW,315,0.0,0.0,50,0.00,,---,0.00,VWS V13.01,2013-03-16 04:05:00,
2013-03-16 00:10:00,52.2,34.1,29.62,NW,315,0.0,0.0,50,0.00,,---,0.00,VWS V13.01,2013-03-16 04:10:00,
2013-03-16 00:15:00,51.8,33.8,29.62,NW,315,0.0,0.0,50,0.00,,---,0.00,VWS V13.01,2013-03-16 04:15:00,
2013-03-16 00:20:00,51.6,34.1,29.62,NW,315,0.0,0.0,51,0.00,,---,0.00,VWS V13.01,2013-03-16 04:20:00,
2013-03-16 00:25:00,51.4,33.9,29.62,NW,315,0.0,0.0,51,0.00,,---,0.00,VWS V13.01,2013-03-16 04:25:00,
2013-03-16 00:30:00,51.4,33.9,29.62,NW,315,0.0,2.2,51,0.00,,---,0.00,VWS V13.01,2013-03-16 04:30:00,
2013-03-16 00:35:00,51.3,33.8,29.62,NW,315,0.0,0.0,51,0.00,,---,0.00,VWS V13.01,2013-03-16 04:35:00,
2013-03-16 00:40:00,51.1,33.6,29.62,NW,315,0.0,0.0,51,0.00,,---,0.00,VWS V13.01,2013-03-16 04:40:00,
2013-03-16 00:45:00,50.9,33.4,29.62,NW,315,0.0,0.0,51,0.00,,---,0.00,VWS V13.01,2013-03-16 04:45:00,
2013-03-16 00:50:00,50.7,33.3,29.62,NW,315,0.0,0.0,51,0.00,,---,0.00,VWS V13.01,2013-03-16 04:50:00,
2013-03-16 00:55:00,50.7,33.3,29.62,NW,315,0.0,0.0,51,0.00,,---,0.00,VWS V13.01,2013-03-16 04:55:00,
2013-03-16 01:00:00,50.4,32.9,29.62,NW,315,0.0,0.0,51,0.00,,---,0.00,VWS V13.01,2013-03-16 05:00:00,
2013-03-16 01:05:00,50.4,32.9,29.62,NW,315,0.0,0.0,51,0.00,,---,0.00,VWS V13.01,2013-03-16 05:05:00,
2013-03-16 01:10:00,50.2,32.8,29.62,NW,315,0.0,0.0,51,0.00,,---,0.00,VWS V13.01,2013-03-16 05:10:00,
2013-03-16 01:15:00,50.0,32.6,29.62,NW,315,0.0,0.0,51,0.00,,---,0.00,VWS V13.01,2013-03-16 05:15:00,
2013-03-16 01:20:00,49.6,32.3,29.59,NW,315,0.0,0.0,51,0.00,,---,0.00,VWS V13.01,2013-03-16 05:20:00,
2013-03-16 01:25:00,49.3,32.9,29.59,NW,315,0.0,0.0,53,0.00,,---,0.00,VWS V13.01,2013-03-16 05:25:00,
2013-03-16 01:30:00,49.1,32.7,29.59,NW,315,0.0,0.0,53,0.00,,---,0.00,VWS V13.01,2013-03-16 05:30:00,
2013-03-16 01:35:00,49.1,32.7,29.59,NW,315,0.0,0.0,53,0.00,,---,0.00,VWS V13.01,2013-03-16 05:35:00,
2013-03-16 01:40:00,48.6,32.2,29.59,NW,315,0.0,0.0,53,0.00,,---,0.00,VWS V13.01,2013-03-16 05:40:00,
2013-03-16 01:45:00,48.2,31.9,29.59,NW,315,0.0,0.0,53,0.00,,---,0.00,VWS V13.01,2013-03-16 05:45:00,
2013-03-16 01:50:00,47.7,31.9,29.59,NW,315,0.0,0.0,54,0.00,,---,0.00,VWS V13.01,2013-03-16 05:50:00,
2013-03-16 01:55:00,47.3,32.4,29.59,NW,315,0.0,0.0,56,0.00,,---,0.00,VWS V13.01,2013-03-16 05:55:00,
2013-03-16 02:00:00,47.3,32.4,29.59,NW,315,0.0,0.0,56,0.00,,---,0.00,VWS V13.01,2013-03-16 06:00:00,
2013-03-16 02:06:00,46.9,32.1,29.59,NW,315,0.0,0.0,56,0.00,,---,0.00,VWS V13.01,2013-03-16 06:06:00,
2013-03-16 02:11:00,46.8,31.9,29.59,NW,315,0.0,0.0,56,0.00,,---,0.00,VWS V13.01,2013-03-16 06:11:00,
2013-03-16 02:16:00,46.6,33.0,29.59,NW,315,0.0,0.0,59,0.00,,---,0.00,VWS V13.01,2013-03-16 06:16:00,
2013-03-16 02:21:00,46.2,32.7,29.59,NW,315,0.0,0.0,59,0.00,,---,0.00,VWS V13.01,2013-03-16 06:21:00,
2013-03-16 02:26:00,46.0,33.0,29.59,NW,315,0.0,0.0,60,0.00,,---,0.00,VWS V13.01,2013-03-16 06:26:00,
2013-03-16 02:31:00,46.0,33.0,29.59,NW,315,0.0,0.0,60,0.00,,---,0.00,VWS V13.01,2013-03-16 06:31:00,
2013-03-16 02:36:00,45.9,32.8,29.59,NW,315,0.0,0.0,60,0.00,,---,0.00,VWS V13.01,2013-03-16 06:36:00,
2013-03-16 02:41:00,45.7,32.6,29.59,NW,315,0.0,0.0,60,0.00,,---,0.00,VWS V13.01,2013-03-16 06:41:00,
2013-03-16 02:46:00,45.5,32.4,29.59,NW,315,0.0,0.0,60,0.00,,---,0.00,VWS V13.01,2013-03-16 06:46:00,
2013-03-16 02:51:00,45.5,32.4,29.59,NW,315,0.0,0.0,60,0.00,,---,0.00,VWS V13.01,2013-03-16 06:51:00,
2013-03-16 02:56:00,45.3,32.3,29.59,NW,315,0.0,0.0,60,0.00,,---,0.00,VWS V13.01,2013-03-16 06:56:00,
2013-03-16 03:01:00,45.3,32.3,29.59,NW,315,0.0,0.0,60,0.00,,---,0.00,VWS V13.01,2013-03-16 07:01:00,
2013-03-16 03:06:00,45.3,32.3,29.59,NW,315,0.0,0.0,60,0.00,,---,0.00,VWS V13.01,2013-03-16 07:06:00,
2013-03-16 03:11:00,45.1,32.1,29.59,NW,315,0.0,0.0,60,0.00,,---,0.00,VWS V13.01,2013-03-16 07:11:00,
2013-03-16 03:16:00,45.1,32.1,29.59,NW,315,0.0,0.0,60,0.00,,---,0.00,VWS V13.01,2013-03-16 07:16:00,
2013-03-16 03:21:00,45.1,32.1,29.59,NW,315,0.0,0.0,60,0.00,,---,0.00,VWS V13.01,2013-03-16 07:21:00,
2013-03-16 03:26:00,45.0,32.3,29.59,NW,315,0.0,0.0,61,0.00,,---,0.00,VWS V13.01,2013-03-16 07:26:00,
2013-03-16 03:31:00,45.0,32.3,29.59,NW,315,0.0,0.0,61,0.00,,---,0.00,VWS V13.01,2013-03-16 07:31:00,
2013-03-16 03:36:00,45.0,32.3,29.59,NW,315,0.0,0.0,61,0.00,,---,0.00,VWS V13.01,2013-03-16 07:36:00,
2013-03-16 03:41:00,45.1,32.5,29.59,NW,315,0.0,0.0,61,0.00,,---,0.00,VWS V13.01,2013-03-16 07:41:00,
2013-03-16 03:46:00,45.3,32.7,29.59,NW,315,0.0,0.0,61,0.00,,---,0.00,VWS V13.01,2013-03-16 07:46:00,
2013-03-16 03:51:00,45.3,32.7,29.59,NW,315,0.0,0.0,61,0.00,,---,0.00,VWS V13.01,2013-03-16 07:51:00,
2013-03-16 03:56:00,45.5,32.8,29.59,NW,315,0.0,0.0,61,0.00,,---,0.00,VWS V13.01,2013-03-16 07:56:00,
2013-03-16 04:01:00,45.7,33.0,29.59,NW,315,0.0,0.0,61,0.00,,---,0.00,VWS V13.01,2013-03-16 08:01:00,
2013-03-16 04:06:00,46.9,33.8,29.59,NW,315,0.0,0.0,60,0.00,,---,0.00,VWS V13.01,2013-03-16 08:06:00,
2013-03-16 04:11:00,47.8,34.2,29.59,NW,315,0.0,0.0,59,0.00,,---,0.00,VWS V13.01,2013-03-16 08:11:00,
2013-03-16 04:16:00,48.7,33.8,29.59,NW,315,0.0,0.0,56,0.00,,---,0.00,VWS V13.01,2013-03-16 08:16:00,
2013-03-16 04:21:00,49.6,34.6,29.59,NW,315,0.0,3.1,56,0.00,,---,0.00,VWS V13.01,2013-03-16 08:21:00,
2013-03-16 04:26:00,50.2,33.7,29.59,NW,315,4.5,4.5,53,0.00,,---,0.00,VWS V13.01,2013-03-16 08:26:00,
2013-03-16 04:31:00,50.4,33.9,29.59,NW,315,0.0,0.0,53,0.00,,---,0.00,VWS V13.01,2013-03-16 08:31:00,
2013-03-16 04:36:00,50.9,34.4,29.59,NW,315,5.4,5.4,53,0.00,,---,0.00,VWS V13.01,2013-03-16 08:36:00,
2013-03-16 04:41:00,50.9,34.4,29.59,NW,315,0.0,0.0,53,0.00,,---,0.00,VWS V13.01,2013-03-16 08:41:00,
2013-03-16 04:46:00,51.1,34.6,29.59,NW,315,0.0,2.2,53,0.00,,---,0.00,VWS V13.01,2013-03-16 08:46:00,
2013-03-16 04:51:00,51.3,34.7,29.56,NW,315,4.5,4.5,53,0.00,,---,0.00,VWS V13.01,2013-03-16 08:51:00,
2013-03-16 04:56:00,51.3,34.7,29.56,NW,315,0.0,0.0,53,0.00,,---,0.00,VWS V13.01,2013-03-16 08:56:00,
2013-03-16 05:01:00,51.3,34.7,29.59,NW,315,0.0,0.0,53,0.00,,---,0.00,VWS V13.01,2013-03-16 09:01:00,
2013-03-16 05:06:00,51.3,34.7,29.59,NW,315,0.0,0.0,53,0.00,,---,0.00,VWS V13.01,2013-03-16 09:06:00,
2013-03-16 05:11:00,51.3,34.7,29.59,NW,315,0.0,0.0,53,0.00,,---,0.00,VWS V13.01,2013-03-16 09:11:00,
2013-03-16 05:16:00,50.9,34.4,29.56,NW,315,0.0,0.0,53,0.00,,---,0.00,VWS V13.01,2013-03-16 09:16:00,
2013-03-16 05:21:00,50.9,34.4,29.56,NW,315,0.0,0.0,53,0.00,,---,0.00,VWS V13.01,2013-03-16 09:21:00,
2013-03-16 05:26:00,50.9,34.4,29.56,NW,315,0.0,0.0,53,0.00,,---,0.00,VWS V13.01,2013-03-16 09:26:00,
2013-03-16 05:31:00,50.9,34.4,29.56,NW,315,0.0,0.0,53,0.00,,---,0.00,VWS V13.01,2013-03-16 09:31:00,
2013-03-16 05:37:00,51.1,34.6,29.56,NW,315,0.0,0.0,53,0.00,,---,0.00,VWS V13.01,2013-03-16 09:37:00,
2013-03-16 05:42:00,51.1,34.6,29.56,NW,315,0.0,0.0,53,0.00,,---,0.00,VWS V13.01,2013-03-16 09:42:00,
2013-03-16 05:47:00,50.9,34.4,29.56,NW,315,0.0,0.0,53,0.00,,---,0.00,VWS V13.01,2013-03-16 09:47:00,
2013-03-16 05:52:00,51.1,34.6,29.56,NW,315,0.0,0.0,53,0.00,,---,0.00,VWS V13.01,2013-03-16 09:52:00,
2013-03-16 05:57:00,51.1,34.6,29.56,NW,315,0.0,0.0,53,0.00,,---,0.00,VWS V13.01,2013-03-16 09:57:00,
2013-03-16 06:02:00,51.3,34.7,29.56,NW,315,0.0,0.0,53,0.00,,---,0.00,VWS V13.01,2013-03-16 10:02:00,
2013-03-16 06:07:00,51.1,34.6,29.56,NW,315,0.0,0.0,53,0.00,,---,0.00,VWS V13.01,2013-03-16 10:07:00,
2013-03-16 06:12:00,51.1,34.6,29.56,NW,315,0.0,0.0,53,0.00,,---,0.00,VWS V13.01,2013-03-16 10:12:00,
2013-03-16 06:17:00,50.9,34.4,29.56,NW,315,0.0,0.0,53,0.00,,---,0.00,VWS V13.01,2013-03-16 10:17:00,
2013-03-16 06:22:00,50.5,34.1,29.56,NW,315,0.0,0.0,53,0.00,,---,0.00,VWS V13.01,2013-03-16 10:22:00,
2013-03-16 06:27:00,50.5,34.1,29.59,NW,315,0.0,0.0,53,0.00,,---,0.00,VWS V13.01,2013-03-16 10:27:00,
2013-03-16 06:32:00,50.5,34.1,29.59,NW,315,0.0,0.0,53,0.00,,---,0.00,VWS V13.01,2013-03-16 10:32:00,
2013-03-16 06:37:00,50.7,34.2,29.59,NW,315,0.0,0.0,53,0.00,,---,0.00,VWS V13.01,2013-03-16 10:37:00,
2013-03-16 06:42:00,50.5,34.1,29.59,NW,315,0.0,0.0,53,0.00,,---,0.00,VWS V13.01,2013-03-16 10:42:00,
2013-03-16 06:47:00,50.4,33.9,29.59,NW,315,0.0,0.0,53,0.00,,---,0.00,VWS V13.01,2013-03-16 10:47:00,
2013-03-16 06:52:00,50.2,33.7,29.59,NW,315,0.0,0.0,53,0.00,,---,0.00,VWS V13.01,2013-03-16 10:52:00,
2013-03-16 06:57:00,50.0,34.9,29.56,NW,315,0.0,0.0,56,0.00,,---,0.00,VWS V13.01,2013-03-16 10:57:00,
2013-03-16 07:02:00,50.0,34.9,29.56,NW,315,0.0,0.0,56,0.00,,---,0.00,VWS V13.01,2013-03-16 11:02:00,
2013-03-16 07:07:00,49.8,34.8,29.56,NW,315,0.0,0.0,56,0.00,,---,0.00,VWS V13.01,2013-03-16 11:07:00,
2013-03-16 07:12:00,49.6,34.6,29.56,NW,315,0.0,0.0,56,0.00,,---,0.00,VWS V13.01,2013-03-16 11:12:00,
2013-03-16 07:17:00,49.3,35.1,29.56,NW,315,0.0,0.0,58,0.00,,---,0.00,VWS V13.01,2013-03-16 11:17:00,
2013-03-16 07:22:00,49.1,35.0,29.56,NW,315,0.0,0.0,58,0.00,,---,0.00,VWS V13.01,2013-03-16 11:22:00,
2013-03-16 07:27:00,49.1,35.4,29.56,NW,315,0.0,0.0,59,0.00,,---,0.00,VWS V13.01,2013-03-16 11:27:00,
2013-03-16 07:32:00,48.9,35.7,29.56,NW,315,0.0,0.0,60,0.00,,---,0.00,VWS V13.01,2013-03-16 11:32:00,
2013-03-16 07:37:00,48.7,35.5,29.56,NW,315,0.0,0.0,60,0.00,,---,0.00,VWS V13.01,2013-03-16 11:37:00,
2013-03-16 07:42:00,48.6,36.2,29.56,NW,315,0.0,0.0,62,0.00,,---,0.00,VWS V13.01,2013-03-16 11:42:00,
2013-03-16 07:47:00,48.0,36.8,29.56,NW,315,0.0,0.0,65,0.00,,---,0.00,VWS V13.01,2013-03-16 11:47:00,
2013-03-16 07:52:00,47.7,38.0,29.56,NW,315,0.0,0.0,69,0.00,,---,0.00,VWS V13.01,2013-03-16 11:52:00,
2013-03-16 07:57:00,47.5,38.2,29.56,NW,315,0.0,0.0,70,0.00,,---,0.00,VWS V13.01,2013-03-16 11:57:00,
2013-03-16 08:02:00,47.1,38.6,29.62,NW,315,0.0,0.0,72,0.00,,---,0.00,VWS V13.01,2013-03-16 12:02:00,
2013-03-16 08:07:00,46.8,39.9,29.62,NW,315,0.0,0.0,77,0.00,,---,0.00,VWS V13.01,2013-03-16 12:07:00,
2013-03-16 08:12:00,46.8,40.3,29.62,NW,315,0.0,0.0,78,0.00,,---,0.00,VWS V13.01,2013-03-16 12:12:00,
2013-03-16 08:17:00,46.6,40.4,29.62,NW,315,0.0,0.0,79,0.00,,---,0.00,VWS V13.01,2013-03-16 12:17:00,
2013-03-16 08:22:00,46.4,40.9,29.62,NW,315,0.0,0.0,81,0.00,,---,0.00,VWS V13.01,2013-03-16 12:22:00,
2013-03-16 08:27:00,46.4,41.2,29.62,NW,315,0.0,0.0,82,0.00,,---,0.00,VWS V13.01,2013-03-16 12:27:00,
2013-03-16 08:32:00,46.2,42.0,29.62,NW,315,0.0,0.0,85,0.00,,---,0.00,VWS V13.01,2013-03-16 12:32:00,
2013-03-16 08:38:00,46.0,42.7,29.62,NW,315,0.0,0.0,88,0.00,,---,0.00,VWS V13.01,2013-03-16 12:38:00,
2013-03-16 08:43:00,46.0,43.6,29.59,NW,315,0.0,0.0,91,0.00,,---,0.00,VWS V13.01,2013-03-16 12:43:00,
2013-03-16 08:48:00,46.0,45.0,29.59,NW,315,0.0,0.0,96,0.00,,---,0.00,VWS V13.01,2013-03-16 12:48:00,
2013-03-16 08:53:00,46.0,45.5,29.59,NW,315,0.0,0.0,98,0.00,,---,0.00,VWS V13.01,2013-03-16 12:53:00,
2013-03-16 08:58:00,46.0,46.0,29.62,NW,315,0.0,0.0,100,0.00,,---,0.00,VWS V13.01,2013-03-16 12:58:00,
2013-03-16 09:03:00,46.2,46.2,29.62,NW,315,0.0,0.0,100,0.00,,---,0.00,VWS V13.01,2013-03-16 13:03:00,
2013-03-16 09:08:00,46.2,46.2,29.62,NW,315,0.0,0.0,100,0.00,,---,0.00,VWS V13.01,2013-03-16 13:08:00,
2013-03-16 09:13:00,46.4,46.4,29.62,NW,315,0.0,0.0,100,0.00,,---,0.00,VWS V13.01,2013-03-16 13:13:00,
2013-03-16 09:18:00,46.6,46.6,29.62,NW,315,0.0,0.0,100,0.00,,---,0.00,VWS V13.01,2013-03-16 13:18:00,
2013-03-16 09:23:00,46.6,46.6,29.62,NW,315,0.0,0.0,100,0.00,,---,0.00,VWS V13.01,2013-03-16 13:23:00,
2013-03-16 09:28:00,46.9,46.9,29.59,NW,315,0.0,0.0,100,0.00,,---,0.00,VWS V13.01,2013-03-16 13:28:00,
2013-03-16 09:33:00,46.9,46.9,29.59,NW,315,0.0,0.0,100,0.00,,---,0.00,VWS V13.01,2013-03-16 13:33:00,
2013-03-16 09:38:00,47.1,47.1,29.59,NW,315,0.0,0.0,100,0.00,,---,0.00,VWS V13.01,2013-03-16 13:38:00,
2013-03-16 09:43:00,47.3,47.3,29.59,NW,315,0.0,0.0,100,0.00,,---,0.00,VWS V13.01,2013-03-16 13:43:00,
2013-03-16 09:48:00,47.3,47.3,29.59,NW,315,0.0,0.0,100,0.00,,---,0.00,VWS V13.01,2013-03-16 13:48:00,
2013-03-16 09:53:00,47.5,47.5,29.59,NW,315,0.0,0.0,100,0.00,,---,0.00,VWS V13.01,2013-03-16 13:53:00,
2013-03-16 09:58:00,47.7,47.7,29.56,NW,315,0.0,0.0,100,0.00,,---,0.00,VWS V13.01,2013-03-16 13:58:00,
2013-03-16 10:03:00,48.2,48.2,29.56,NW,315,0.0,0.0,100,0.00,,---,0.00,VWS V13.01,2013-03-16 14:03:00,
2013-03-16 10:08:00,48.7,48.7,29.56,SE,135,0.0,0.0,100,0.00,,---,0.00,VWS V13.01,2013-03-16 14:08:00,
2013-03-16 10:13:00,48.9,48.9,29.56,SE,135,0.0,0.0,100,0.00,,---,0.00,VWS V13.01,2013-03-16 14:13:00,
2013-03-16 10:18:00,49.8,49.8,29.56,SE,135,0.0,0.0,100,0.00,,---,0.00,VWS V13.01,2013-03-16 14:18:00,
2013-03-16 10:23:00,50.0,50.0,29.56,SE,135,0.0,0.0,100,0.00,,---,0.00,VWS V13.01,2013-03-16 14:23:00,
2013-03-16 10:28:00,50.4,50.4,29.56,SE,135,0.0,0.0,100,0.00,,---,0.00,VWS V13.01,2013-03-16 14:28:00,
2013-03-16 10:33:00,50.7,50.7,29.56,SE,135,0.0,0.0,100,0.00,,---,0.00,VWS V13.01,2013-03-16 14:33:00,
2013-03-16 10:38:00,51.1,50.8,29.56,SE,135,0.0,0.0,99,0.00,,---,0.00,VWS V13.01,2013-03-16 14:38:00,
2013-03-16 10:43:00,51.4,50.3,29.56,SE,135,0.0,0.0,96,0.00,,---,0.00,VWS V13.01,2013-03-16 14:43:00,
2013-03-16 10:48:00,51.8,49.3,29.56,SE,135,4.5,4.5,91,0.00,,---,0.00,VWS V13.01,2013-03-16 14:48:00,
2013-03-16 10:53:00,52.5,47.8,29.56,SE,135,0.0,0.0,84,0.00,,---,0.00,VWS V13.01,2013-03-16 14:53:00,
2013-03-16 10:58:00,52.9,47.2,29.56,SE,135,0.0,0.0,81,0.00,,---,0.00,VWS V13.01,2013-03-16 14:58:00,
2013-03-16 11:03:00,53.2,46.6,29.56,SE,135,0.0,0.0,78,0.00,,---,0.00,VWS V13.01,2013-03-16 15:03:00,
2013-03-16 11:08:00,53.8,46.0,29.56,SE,135,0.0,0.0,75,0.00,,---,0.00,VWS V13.01,2013-03-16 15:08:00,
2013-03-16 11:13:00,54.1,45.7,29.53,South,180,4.5,4.5,73,0.00,,---,0.00,VWS V13.01,2013-03-16 15:13:00,
2013-03-16 11:18:00,55.6,46.7,29.53,South,180,0.0,0.0,72,0.00,,---,0.00,VWS V13.01,2013-03-16 15:18:00,
2013-03-16 11:23:00,56.3,46.3,29.53,South,180,0.0,0.0,69,0.00,,---,0.00,VWS V13.01,2013-03-16 15:23:00,
2013-03-16 11:28:00,57.2,46.0,29.53,SE,135,0.0,0.0,66,0.00,,---,0.00,VWS V13.01,2013-03-16 15:28:00,
2013-03-16 11:33:00,57.6,44.2,29.53,SE,135,0.0,0.0,61,0.00,,---,0.00,VWS V13.01,2013-03-16 15:33:00,
2013-03-16 11:38:00,58.3,44.5,29.53,SE,135,0.0,0.0,60,0.00,,---,0.00,VWS V13.01,2013-03-16 15:38:00,
2013-03-16 11:43:00,58.8,44.1,29.53,SE,135,0.0,0.0,58,0.00,,---,0.00,VWS V13.01,2013-03-16 15:43:00,
2013-03-16 11:48:00,59.4,44.1,29.53,SE,135,0.0,0.0,57,0.00,,---,0.00,VWS V13.01,2013-03-16 15:48:00,
2013-03-16 11:53:00,59.7,44.5,29.53,SE,135,0.0,0.0,57,0.00,,---,0.00,VWS V13.01,2013-03-16 15:53:00,
2013-03-16 11:58:00,60.3,44.5,29.53,SE,135,0.0,2.7,56,0.00,,---,0.00,VWS V13.01,2013-03-16 15:58:00,
2013-03-16 12:04:00,60.6,44.8,29.53,SE,135,0.0,3.1,56,0.00,,---,0.00,VWS V13.01,2013-03-16 16:04:00,
2013-03-16 12:09:00,60.6,43.9,29.53,SE,135,0.0,2.7,54,0.00,,---,0.00,VWS V13.01,2013-03-16 16:09:00,
2013-03-16 12:14:00,61.0,43.8,29.53,SE,135,0.0,0.0,53,0.00,,---,0.00,VWS V13.01,2013-03-16 16:14:00,
2013-03-16 12:19:00,61.3,44.1,29.53,SE,135,4.5,4.5,53,0.00,,---,0.00,VWS V13.01,2013-03-16 16:19:00,
2013-03-16 12:24:00,61.7,44.4,29.53,SW,225,4.5,4.5,53,0.00,,---,0.00,VWS V13.01,2013-03-16 16:24:00,
2013-03-16 12:29:00,62.2,44.9,29.50,SE,135,0.0,0.0,53,0.00,,---,0.00,VWS V13.01,2013-03-16 16:29:00,
2013-03-16 12:34:00,63.0,45.6,29.50,SE,135,4.5,4.5,53,0.00,,---,0.00,VWS V13.01,2013-03-16 16:34:00,
2013-03-16 12:39:00,63.3,44.4,29.50,SE,135,0.0,0.0,50,0.00,,---,0.00,VWS V13.01,2013-03-16 16:39:00,
2013-03-16 12:44:00,62.6,43.7,29.50,SE,135,0.0,0.0,50,0.00,,---,0.00,VWS V13.01,2013-03-16 16:44:00,
2013-03-16 12:49:00,62.2,44.9,29.50,SE,135,0.0,0.0,53,0.00,,---,0.00,VWS V13.01,2013-03-16 16:49:00,
2013-03-16 12:54:00,62.2,44.9,29.50,SE,135,0.0,0.0,53,0.00,,---,0.00,VWS V13.01,2013-03-16 16:54:00,
2013-03-16 12:59:00,62.2,44.9,29.50,SE,135,0.0,0.0,53,0.00,,---,0.00,VWS V13.01,2013-03-16 16:59:00,
2013-03-16 13:04:00,62.4,45.1,29.50,SE,135,0.0,0.0,53,0.00,,---,0.00,VWS V13.01,2013-03-16 17:04:00,
2013-03-16 13:10:00,62.8,45.4,29.50,SE,135,0.0,0.0,53,0.00,,---,0.00,VWS V13.01,2013-03-16 17:10:00,
2013-03-16 13:15:00,62.8,45.4,29.50,SE,135,0.0,0.0,53,0.00,,---,0.00,VWS V13.01,2013-03-16 17:15:00,
2013-03-16 13:20:00,62.8,45.4,29.47,SE,135,6.3,6.3,53,0.00,,---,0.00,VWS V13.01,2013-03-16 17:20:00,
2013-03-16 13:25:00,62.8,45.4,29.47,SE,135,0.0,0.0,53,0.00,,---,0.00,VWS V13.01,2013-03-16 17:25:00,
2013-03-16 13:30:00,62.8,45.4,29.47,NW,315,7.2,7.2,53,0.00,,---,0.00,VWS V13.01,2013-03-16 17:30:00,
2013-03-16 13:35:00,62.4,45.1,29.47,NW,315,0.0,0.0,53,0.00,,---,0.00,VWS V13.01,2013-03-16 17:35:00,
2013-03-16 13:40:00,62.2,44.9,29.50,NW,315,0.0,3.1,53,0.00,,---,0.00,VWS V13.01,2013-03-16 17:40:00,
2013-03-16 13:45:00,62.1,44.8,29.47,NW,315,0.0,2.2,53,0.00,,---,0.00,VWS V13.01,2013-03-16 17:45:00,
2013-03-16 13:50:00,62.1,44.8,29.47,NW,315,0.0,0.0,53,0.00,,---,0.00,VWS V13.01,2013-03-16 17:50:00,
2013-03-16 13:54:00,62.2,44.9,29.47,NW,315,0.0,0.0,53,0.00,,---,0.00,VWS V13.01,2013-03-16 17:54:00,
2013-03-16 14:00:00,62.2,44.9,29.47,NW,315,4.5,4.5,53,0.00,,---,0.00,VWS V13.01,2013-03-16 18:00:00,
2013-03-16 14:05:00,62.2,44.9,29.47,North,0,6.3,6.3,53,0.00,,---,0.00,VWS V13.01,2013-03-16 18:05:00,
2013-03-16 14:10:00,62.2,44.9,29.47,North,0,4.5,4.5,53,0.00,,---,0.00,VWS V13.01,2013-03-16 18:10:00,
2013-03-16 14:15:00,62.2,44.9,29.47,North,0,0.0,0.0,53,0.00,,---,0.00,VWS V13.01,2013-03-16 18:15:00,
2013-03-16 14:20:00,62.2,44.9,29.47,East,90,0.0,3.1,53,0.00,,---,0.00,VWS V13.01,2013-03-16 18:20:00,
2013-03-16 14:25:00,62.2,44.9,29.47,East,90,5.4,5.4,53,0.00,,---,0.00,VWS V13.01,2013-03-16 18:25:00,
2013-03-16 14:30:00,62.4,46.5,29.47,NW,315,7.2,7.2,56,0.00,,---,0.00,VWS V13.01,2013-03-16 18:30:00,
2013-03-16 14:35:00,62.6,46.2,29.47,NW,315,0.0,0.0,55,0.00,,---,0.00,VWS V13.01,2013-03-16 18:35:00,
2013-03-16 14:40:00,63.1,46.7,29.47,NW,315,0.0,0.0,55,0.00,,---,0.00,VWS V13.01,2013-03-16 18:40:00,
2013-03-16 14:45:00,63.9,46.4,29.47,North,0,0.0,2.7,53,0.00,,---,0.00,VWS V13.01,2013-03-16 18:45:00,
2013-03-16 14:50:00,64.4,46.4,29.47,NW,315,0.0,0.0,52,0.00,,---,0.00,VWS V13.01,2013-03-16 18:50:00,
2013-03-16 14:55:00,65.3,47.2,29.47,NW,315,0.0,0.0,52,0.00,,---,0.00,VWS V13.01,2013-03-16 18:55:00,
2013-03-16 15:00:00,65.8,47.7,29.44,North,0,0.0,2.2,52,0.00,,---,0.00,VWS V13.01,2013-03-16 19:00:00,
2013-03-16 15:05:00,66.2,46.5,29.44,NW,315,0.0,3.1,49,0.00,,---,0.00,VWS V13.01,2013-03-16 19:05:00,
2013-03-16 15:10:00,67.1,47.3,29.44,NW,315,0.0,0.0,49,0.00,,---,0.00,VWS V13.01,2013-03-16 19:10:00,
2013-03-16 15:14:00,67.5,47.7,29.44,NW,315,6.3,6.3,49,0.00,,---,0.00,VWS V13.01,2013-03-16 19:14:00,
2013-03-16 15:20:00,67.8,48.0,29.44,South,180,4.5,4.5,49,0.00,,---,0.00,VWS V13.01,2013-03-16 19:20:00,
2013-03-16 15:24:00,68.5,48.6,29.44,South,180,4.5,4.5,49,0.00,,---,0.00,VWS V13.01,2013-03-16 19:24:00,
2013-03-16 15:29:00,68.4,48.5,29.44,WNW,292,4.5,4.5,49,0.00,,---,0.00,VWS V13.01,2013-03-16 19:29:00,
2013-03-16 15:34:00,68.5,48.6,29.41,NW,315,5.4,5.8,49,0.00,,---,0.00,VWS V13.01,2013-03-16 19:34:00,
2013-03-16 15:39:00,68.5,48.6,29.41,NW,315,7.2,7.2,49,0.00,,---,0.00,VWS V13.01,2013-03-16 19:39:00,
2013-03-16 20:20:00,56.7,56.7,29.50,South,180,0.0,0.0,100,0.00,,---,0.00,VWS V13.01,2013-03-17 00:20:00,
2013-03-16 20:25:00,56.5,56.5,29.50,South,180,0.0,0.0,100,0.00,,---,0.00,VWS V13.01,2013-03-17 00:25:00,
2013-03-16 20:30:00,56.3,56.3,29.50,South,180,0.0,0.0,100,0.00,,---,0.00,VWS V13.01,2013-03-17 00:30:00,
2013-03-16 20:35:00,56.3,56.3,29.50,South,180,0.0,0.0,100,0.00,,---,0.00,VWS V13.01,2013-03-17 00:35:00,
2013-03-16 20:40:00,56.1,56.1,29.50,South,180,0.0,0.0,100,0.00,,---,0.00,VWS V13.01,2013-03-17 00:40:00,
2013-03-16 20:45:00,55.9,55.9,29.50,South,180,0.0,0.0,100,0.00,,---,0.00,VWS V13.01,2013-03-17 00:45:00,
2013-03-16 20:50:00,55.9,55.9,29.50,South,180,0.0,0.0,100,0.00,,---,0.00,VWS V13.01,2013-03-17 00:50:00,
2013-03-16 20:55:00,55.8,55.8,29.50,South,180,0.0,0.0,100,0.00,,---,0.00,VWS V13.01,2013-03-17 00:55:00,
2013-03-16 21:00:00,55.8,55.8,29.50,South,180,0.0,0.0,100,0.00,,---,0.00,VWS V13.01,2013-03-17 01:00:00,
2013-03-16 21:05:00,55.4,55.4,29.53,South,180,0.0,0.0,100,0.00,,---,0.00,VWS V13.01,2013-03-17 01:05:00,
2013-03-16 21:10:00,55.4,55.4,29.53,South,180,0.0,0.0,100,0.00,,---,0.00,VWS V13.01,2013-03-17 01:10:00,
2013-03-16 21:15:00,55.2,55.2,29.53,South,180,0.0,0.0,100,0.00,,---,0.00,VWS V13.01,2013-03-17 01:15:00,
2013-03-16 21:20:00,54.9,54.9,29.53,South,180,0.0,0.0,100,0.00,,---,0.00,VWS V13.01,2013-03-17 01:20:00,
2013-03-16 21:25:00,55.0,55.0,29.53,SE,135,6.3,6.3,100,0.00,,---,0.00,VWS V13.01,2013-03-17 01:25:00,
2013-03-16 21:30:00,55.2,55.2,29.53,SE,135,0.0,0.0,100,0.00,,---,0.00,VWS V13.01,2013-03-17 01:30:00,
2013-03-16 21:35:00,55.6,55.6,29.53,SE,135,5.4,5.4,100,0.00,,---,0.00,VWS V13.01,2013-03-17 01:35:00,
2013-03-16 21:40:00,55.4,55.4,29.53,SE,135,0.0,0.0,100,0.00,,---,0.00,VWS V13.01,2013-03-17 01:40:00,
2013-03-16 21:45:00,55.6,55.6,29.53,SE,135,0.0,0.0,100,0.00,,---,0.00,VWS V13.01,2013-03-17 01:45:00,
2013-03-16 21:50:00,55.6,55.6,29.53,SE,135,0.0,0.0,100,0.00,,---,0.00,VWS V13.01,2013-03-17 01:50:00,
2013-03-16 21:55:00,55.8,55.8,29.56,SE,135,0.0,0.0,100,0.00,,---,0.00,VWS V13.01,2013-03-17 01:55:00,
2013-03-16 22:00:00,55.8,55.8,29.56,SE,135,0.0,0.0,100,0.00,,---,0.00,VWS V13.01,2013-03-17 02:00:00,
2013-03-16 22:05:00,55.8,55.8,29.56,SE,135,0.0,0.0,100,0.00,,---,0.00,VWS V13.01,2013-03-17 02:05:00,
2013-03-16 22:10:00,55.6,55.6,29.56,SE,135,0.0,0.0,100,0.00,,---,0.00,VWS V13.01,2013-03-17 02:10:00,
2013-03-16 22:15:00,55.4,55.4,29.56,SE,135,0.0,0.0,100,0.00,,---,0.00,VWS V13.01,2013-03-17 02:15:00,
2013-03-16 22:20:00,55.2,55.2,29.56,SE,135,5.4,5.4,100,0.00,,---,0.00,VWS V13.01,2013-03-17 02:20:00,
2013-03-16 22:25:00,55.0,55.0,29.59,SE,135,0.0,0.0,100,0.00,,---,0.00,VWS V13.01,2013-03-17 02:25:00,
2013-03-16 22:30:00,54.5,54.5,29.59,SE,135,0.0,0.0,100,0.00,,---,0.00,VWS V13.01,2013-03-17 02:30:00,
2013-03-16 22:35:00,54.0,54.0,29.59,East,90,4.5,4.5,100,0.00,,---,0.00,VWS V13.01,2013-03-17 02:35:00,
2013-03-16 22:40:00,53.6,53.6,29.59,East,90,0.0,0.0,100,0.00,,---,0.00,VWS V13.01,2013-03-17 02:40:00,
2013-03-16 22:45:00,53.1,53.1,29.59,East,90,0.0,3.1,100,0.00,,---,0.00,VWS V13.01,2013-03-17 02:45:00,
2013-03-16 22:50:00,52.7,52.7,29.59,East,90,0.0,0.0,100,0.00,,---,0.00,VWS V13.01,2013-03-17 02:50:00,
2013-03-16 22:55:00,52.3,52.3,29.59,East,90,5.4,5.4,100,0.00,,---,0.00,VWS V13.01,2013-03-17 02:55:00,
2013-03-16 23:00:00,52.0,52.0,29.59,East,90,6.3,6.3,100,0.00,,---,0.00,VWS V13.01,2013-03-17 03:00:00,
2013-03-16 23:05:00,51.6,51.6,29.59,East,90,0.0,2.2,100,0.00,,---,0.00,VWS V13.01,2013-03-17 03:05:00,
2013-03-16 23:10:00,50.9,50.9,29.62,East,90,5.4,5.4,100,0.00,,---,0.00,VWS V13.01,2013-03-17 03:10:00,
2013-03-16 23:15:00,50.4,50.4,29.62,East,90,0.0,3.1,100,0.00,,---,0.00,VWS V13.01,2013-03-17 03:15:00,
2013-03-16 23:20:00,49.6,49.6,29.62,East,90,0.0,2.7,100,0.00,,---,0.00,VWS V13.01,2013-03-17 03:20:00,
2013-03-16 23:25:00,49.3,49.3,29.62,East,90,0.0,0.0,100,0.00,,---,0.00,VWS V13.01,2013-03-17 03:25:00,
2013-03-16 23:30:00,48.9,48.9,29.62,North,0,0.0,0.0,100,0.00,,---,0.00,VWS V13.01,2013-03-17 03:30:00,
2013-03-16 23:35:00,48.6,48.6,29.62,NE,45,5.4,5.4,100,0.00,,---,0.00,VWS V13.01,2013-03-17 03:35:00,
2013-03-16 23:40:00,48.4,48.4,29.65,NE,45,0.0,0.0,100,0.00,,---,0.00,VWS V13.01,2013-03-17 03:40:00,
2013-03-16 23:45:00,48.0,48.0,29.65,NE,45,0.0,0.0,100,0.00,,---,0.00,VWS V13.01,2013-03-17 03:45:00,
2013-03-16 23:50:00,47.8,47.8,29.65,NE,45,0.0,2.2,100,0.00,,---,0.00,VWS V13.01,2013-03-17 03:50:00,
2013-03-16 23:55:00,47.5,47.5,29.65,NE,45,0.0,0.0,100,0.00,,---,0.00,VWS V13.01,2013-03-17 03:55:00,